sensor_id;sensor_type;location;lat;lon;timestamp;temperature;humidity
39453;DHT22;25154;-33.684;151.102;2023-08-31T00:01:19;16.80;99.90
39453;DHT22;25154;-33.684;151.102;2023-08-31T00:06:21;17.40;99.90
39453;DHT22;25154;-33.684;151.102;2023-08-31T00:11:25;17.00;99.90
39453;DHT22;25154;-33.684;151.102;2023-08-31T00:16:28;16.60;99.90
39453;DHT22;25154;-33.684;151.102;2023-08-31T00:21:31;16.80;99.90
39453;DHT22;25154;-33.684;151.102;2023-08-31T00:26:35;17.60;99.90
39453;DHT22;25154;-33.684;151.102;2023-08-31T00:31:44;18.00;99.90
39453;DHT22;25154;-33.684;151.102;2023-08-31T00:36:50;18.60;99.90
39453;DHT22;25154;-33.684;151.102;2023-08-31T00:41:53;19.00;99.90
39453;DHT22;25154;-33.684;151.102;2023-08-31T00:46:56;19.20;99.90
39453;DHT22;25154;-33.684;151.102;2023-08-31T00:51:58;18.20;99.90
39453;DHT22;25154;-33.684;151.102;2023-08-31T00:57:01;18.30;99.90
39453;DHT22;25154;-33.684;151.102;2023-08-31T01:02:37;19.30;99.90
39453;DHT22;25154;-33.684;151.102;2023-08-31T01:07:58;19.20;99.90
39453;DHT22;25154;-33.684;151.102;2023-08-31T01:13:31;19.50;99.90
39453;DHT22;25154;-33.684;151.102;2023-08-31T01:18:37;18.90;99.90
39453;DHT22;25154;-33.684;151.102;2023-08-31T01:23:54;18.20;99.90
39453;DHT22;25154;-33.684;151.102;2023-08-31T01:28:57;19.40;99.90
39453;DHT22;25154;-33.684;151.102;2023-08-31T01:34:00;18.50;99.90
39453;DHT22;25154;-33.684;151.102;2023-08-31T01:39:29;18.40;99.90
39453;DHT22;25154;-33.684;151.102;2023-08-31T01:44:35;19.40;99.90
39453;DHT22;25154;-33.684;151.102;2023-08-31T01:49:41;18.90;99.90
39453;DHT22;25154;-33.684;151.102;2023-08-31T01:54:45;18.60;99.90
39453;DHT22;25154;-33.684;151.102;2023-08-31T01:59:47;18.40;99.90
39453;DHT22;25154;-33.684;151.102;2023-08-31T02:04:49;18.50;99.90
39453;DHT22;25154;-33.684;151.102;2023-08-31T02:09:54;18.80;99.90
39453;DHT22;25154;-33.684;151.102;2023-08-31T02:14:57;20.30;99.90
39453;DHT22;25154;-33.684;151.102;2023-08-31T02:19:59;18.90;99.90
39453;DHT22;25154;-33.684;151.102;2023-08-31T02:25:03;19.00;99.90
39453;DHT22;25154;-33.684;151.102;2023-08-31T02:30:06;20.10;99.90
39453;DHT22;25154;-33.684;151.102;2023-08-31T02:35:08;20.10;99.90
39453;DHT22;25154;-33.684;151.102;2023-08-31T02:40:11;20.40;99.90
39453;DHT22;25154;-33.684;151.102;2023-08-31T02:45:14;21.30;99.90
39453;DHT22;25154;-33.684;151.102;2023-08-31T02:50:17;22.10;99.90
39453;DHT22;25154;-33.684;151.102;2023-08-31T02:55:20;22.00;99.90
39453;DHT22;25154;-33.684;151.102;2023-08-31T03:00:23;20.60;99.90
39453;DHT22;25154;-33.684;151.102;2023-08-31T03:05:25;19.60;99.90
39453;DHT22;25154;-33.684;151.102;2023-08-31T03:10:27;19.50;99.90
39453;DHT22;25154;-33.684;151.102;2023-08-31T03:15:31;20.10;99.90
39453;DHT22;25154;-33.684;151.102;2023-08-31T03:20:34;21.70;99.90
39453;DHT22;25154;-33.684;151.102;2023-08-31T03:25:36;21.90;99.90
39453;DHT22;25154;-33.684;151.102;2023-08-31T03:30:38;21.10;99.90
39453;DHT22;25154;-33.684;151.102;2023-08-31T03:35:41;21.90;99.90
39453;DHT22;25154;-33.684;151.102;2023-08-31T03:40:52;21.90;99.90
39453;DHT22;25154;-33.684;151.102;2023-08-31T03:45:55;22.80;99.90
39453;DHT22;25154;-33.684;151.102;2023-08-31T03:50:57;24.60;94.60
39453;DHT22;25154;-33.684;151.102;2023-08-31T03:56:00;23.30;97.00
39453;DHT22;25154;-33.684;151.102;2023-08-31T04:01:02;23.30;97.80
39453;DHT22;25154;-33.684;151.102;2023-08-31T04:06:06;21.40;99.90
39453;DHT22;25154;-33.684;151.102;2023-08-31T04:11:09;20.60;99.90
39453;DHT22;25154;-33.684;151.102;2023-08-31T04:16:11;22.60;98.50
39453;DHT22;25154;-33.684;151.102;2023-08-31T04:21:13;21.40;99.90
39453;DHT22;25154;-33.684;151.102;2023-08-31T04:26:16;20.30;99.90
39453;DHT22;25154;-33.684;151.102;2023-08-31T04:31:19;19.90;99.90
39453;DHT22;25154;-33.684;151.102;2023-08-31T04:36:21;20.50;99.90
39453;DHT22;25154;-33.684;151.102;2023-08-31T04:41:24;22.10;99.90
39453;DHT22;25154;-33.684;151.102;2023-08-31T04:46:26;27.50;90.30
39453;DHT22;25154;-33.684;151.102;2023-08-31T04:51:33;29.10;83.00
39453;DHT22;25154;-33.684;151.102;2023-08-31T04:56:36;31.10;77.70
39453;DHT22;25154;-33.684;151.102;2023-08-31T05:01:38;31.90;74.20
39453;DHT22;25154;-33.684;151.102;2023-08-31T05:06:41;26.00;88.00
39453;DHT22;25154;-33.684;151.102;2023-08-31T05:11:43;28.40;85.00
39453;DHT22;25154;-33.684;151.102;2023-08-31T05:16:46;32.00;72.00
39453;DHT22;25154;-33.684;151.102;2023-08-31T05:21:49;31.80;72.20
39453;DHT22;25154;-33.684;151.102;2023-08-31T05:26:51;29.30;78.00
39453;DHT22;25154;-33.684;151.102;2023-08-31T05:31:53;24.10;91.60
39453;DHT22;25154;-33.684;151.102;2023-08-31T05:36:56;28.00;82.80
39453;DHT22;25154;-33.684;151.102;2023-08-31T05:41:58;23.10;94.60
39453;DHT22;25154;-33.684;151.102;2023-08-31T05:47:00;21.30;99.90
39453;DHT22;25154;-33.684;151.102;2023-08-31T05:52:03;20.00;99.90
39453;DHT22;25154;-33.684;151.102;2023-08-31T05:57:06;20.00;99.90
39453;DHT22;25154;-33.684;151.102;2023-08-31T06:02:08;20.40;99.90
39453;DHT22;25154;-33.684;151.102;2023-08-31T06:07:10;20.60;99.90
39453;DHT22;25154;-33.684;151.102;2023-08-31T06:12:13;20.30;99.90
39453;DHT22;25154;-33.684;151.102;2023-08-31T06:17:15;24.40;97.90
39453;DHT22;25154;-33.684;151.102;2023-08-31T06:22:18;23.60;97.90
39453;DHT22;25154;-33.684;151.102;2023-08-31T06:27:20;21.30;99.90
39453;DHT22;25154;-33.684;151.102;2023-08-31T06:32:22;19.40;99.90
39453;DHT22;25154;-33.684;151.102;2023-08-31T06:37:25;18.30;99.90
39453;DHT22;25154;-33.684;151.102;2023-08-31T06:42:27;17.60;99.90
39453;DHT22;25154;-33.684;151.102;2023-08-31T06:47:29;17.10;99.90
39453;DHT22;25154;-33.684;151.102;2023-08-31T06:52:32;16.70;99.90
39453;DHT22;25154;-33.684;151.102;2023-08-31T06:57:35;16.80;99.90
39453;DHT22;25154;-33.684;151.102;2023-08-31T07:02:40;16.60;99.90
39453;DHT22;25154;-33.684;151.102;2023-08-31T07:07:43;16.30;99.90
39453;DHT22;25154;-33.684;151.102;2023-08-31T07:12:45;15.30;99.90
39453;DHT22;25154;-33.684;151.102;2023-08-31T07:17:48;15.60;99.90
39453;DHT22;25154;-33.684;151.102;2023-08-31T07:22:50;15.40;99.90
39453;DHT22;25154;-33.684;151.102;2023-08-31T07:27:53;15.30;99.90
39453;DHT22;25154;-33.684;151.102;2023-08-31T07:32:55;15.10;99.90
39453;DHT22;25154;-33.684;151.102;2023-08-31T07:37:57;14.80;99.90
39453;DHT22;25154;-33.684;151.102;2023-08-31T07:43:00;14.70;99.90
39453;DHT22;25154;-33.684;151.102;2023-08-31T07:48:02;14.50;99.90
39453;DHT22;25154;-33.684;151.102;2023-08-31T07:53:05;14.40;99.90
39453;DHT22;25154;-33.684;151.102;2023-08-31T07:58:07;14.30;99.90
39453;DHT22;25154;-33.684;151.102;2023-08-31T08:03:10;14.00;99.90
39453;DHT22;25154;-33.684;151.102;2023-08-31T08:08:13;13.90;99.90
39453;DHT22;25154;-33.684;151.102;2023-08-31T08:13:15;13.70;99.90
39453;DHT22;25154;-33.684;151.102;2023-08-31T08:18:17;13.70;99.90
39453;DHT22;25154;-33.684;151.102;2023-08-31T08:23:20;13.50;99.90
39453;DHT22;25154;-33.684;151.102;2023-08-31T08:28:23;13.50;99.90
39453;DHT22;25154;-33.684;151.102;2023-08-31T08:33:27;13.40;99.90
39453;DHT22;25154;-33.684;151.102;2023-08-31T08:38:33;13.30;99.90
39453;DHT22;25154;-33.684;151.102;2023-08-31T08:43:37;13.30;99.90
39453;DHT22;25154;-33.684;151.102;2023-08-31T08:48:44;13.00;99.90
39453;DHT22;25154;-33.684;151.102;2023-08-31T08:53:47;12.90;99.90
39453;DHT22;25154;-33.684;151.102;2023-08-31T08:58:50;13.00;99.90
39453;DHT22;25154;-33.684;151.102;2023-08-31T09:03:53;12.90;99.90
39453;DHT22;25154;-33.684;151.102;2023-08-31T09:08:56;12.40;99.90
39453;DHT22;25154;-33.684;151.102;2023-08-31T09:13:59;12.70;99.90
39453;DHT22;25154;-33.684;151.102;2023-08-31T09:19:18;12.80;99.90
39453;DHT22;25154;-33.684;151.102;2023-08-31T09:24:21;12.60;99.90
39453;DHT22;25154;-33.684;151.102;2023-08-31T09:29:25;12.60;99.90
39453;DHT22;25154;-33.684;151.102;2023-08-31T09:34:35;12.40;99.90
39453;DHT22;25154;-33.684;151.102;2023-08-31T09:39:39;12.50;99.90
39453;DHT22;25154;-33.684;151.102;2023-08-31T09:44:45;12.80;99.90
39453;DHT22;25154;-33.684;151.102;2023-08-31T09:49:48;13.30;99.90
39453;DHT22;25154;-33.684;151.102;2023-08-31T09:54:52;12.90;99.90
39453;DHT22;25154;-33.684;151.102;2023-08-31T09:59:55;13.10;99.90
39453;DHT22;25154;-33.684;151.102;2023-08-31T10:04:58;13.10;99.90
39453;DHT22;25154;-33.684;151.102;2023-08-31T10:10:01;13.20;99.90
39453;DHT22;25154;-33.684;151.102;2023-08-31T10:15:05;13.00;99.90
39453;DHT22;25154;-33.684;151.102;2023-08-31T10:20:10;13.10;99.90
39453;DHT22;25154;-33.684;151.102;2023-08-31T10:25:13;13.10;99.90
39453;DHT22;25154;-33.684;151.102;2023-08-31T10:35:41;13.00;99.90
39453;DHT22;25154;-33.684;151.102;2023-08-31T10:46:25;12.60;99.90
39453;DHT22;25154;-33.684;151.102;2023-08-31T10:51:32;12.40;99.90
39453;DHT22;25154;-33.684;151.102;2023-08-31T10:56:40;12.30;99.90
39453;DHT22;25154;-33.684;151.102;2023-08-31T11:01:59;12.40;99.90
39453;DHT22;25154;-33.684;151.102;2023-08-31T11:07:18;12.50;99.90
39453;DHT22;25154;-33.684;151.102;2023-08-31T11:12:22;12.60;99.90
39453;DHT22;25154;-33.684;151.102;2023-08-31T11:17:25;12.60;99.90
39453;DHT22;25154;-33.684;151.102;2023-08-31T11:22:29;12.60;99.90
39453;DHT22;25154;-33.684;151.102;2023-08-31T11:27:32;12.40;99.90
39453;DHT22;25154;-33.684;151.102;2023-08-31T11:32:34;12.20;99.90
39453;DHT22;25154;-33.684;151.102;2023-08-31T11:37:37;12.00;99.90
39453;DHT22;25154;-33.684;151.102;2023-08-31T11:42:39;11.80;99.90
39453;DHT22;25154;-33.684;151.102;2023-08-31T11:47:43;11.70;99.90
39453;DHT22;25154;-33.684;151.102;2023-08-31T11:52:46;11.70;99.90
39453;DHT22;25154;-33.684;151.102;2023-08-31T11:57:52;11.60;99.90
39453;DHT22;25154;-33.684;151.102;2023-08-31T12:03:02;11.50;99.90
39453;DHT22;25154;-33.684;151.102;2023-08-31T12:08:07;11.40;99.90
39453;DHT22;25154;-33.684;151.102;2023-08-31T12:13:10;11.40;99.90
39453;DHT22;25154;-33.684;151.102;2023-08-31T12:18:13;11.40;99.90
39453;DHT22;25154;-33.684;151.102;2023-08-31T12:23:16;11.30;99.90
39453;DHT22;25154;-33.684;151.102;2023-08-31T12:28:22;11.00;99.90
39453;DHT22;25154;-33.684;151.102;2023-08-31T12:33:24;11.00;99.90
39453;DHT22;25154;-33.684;151.102;2023-08-31T12:38:27;11.10;99.90
39453;DHT22;25154;-33.684;151.102;2023-08-31T12:43:29;11.00;99.90
39453;DHT22;25154;-33.684;151.102;2023-08-31T12:48:33;10.70;99.90
39453;DHT22;25154;-33.684;151.102;2023-08-31T12:53:38;10.90;99.90
39453;DHT22;25154;-33.684;151.102;2023-08-31T12:58:41;10.80;99.90
39453;DHT22;25154;-33.684;151.102;2023-08-31T13:03:44;10.80;99.90
39453;DHT22;25154;-33.684;151.102;2023-08-31T13:08:46;10.60;99.90
39453;DHT22;25154;-33.684;151.102;2023-08-31T13:13:50;10.70;99.90
39453;DHT22;25154;-33.684;151.102;2023-08-31T13:18:53;10.70;99.90
39453;DHT22;25154;-33.684;151.102;2023-08-31T13:23:57;10.60;99.90
39453;DHT22;25154;-33.684;151.102;2023-08-31T13:29:03;10.30;99.90
39453;DHT22;25154;-33.684;151.102;2023-08-31T13:34:07;10.40;99.90
39453;DHT22;25154;-33.684;151.102;2023-08-31T13:39:09;10.30;99.90
39453;DHT22;25154;-33.684;151.102;2023-08-31T13:44:15;10.20;99.90
39453;DHT22;25154;-33.684;151.102;2023-08-31T13:49:18;10.50;99.90
39453;DHT22;25154;-33.684;151.102;2023-08-31T13:54:21;10.40;99.90
39453;DHT22;25154;-33.684;151.102;2023-08-31T13:59:23;10.00;99.90
39453;DHT22;25154;-33.684;151.102;2023-08-31T14:04:29;10.10;99.90
39453;DHT22;25154;-33.684;151.102;2023-08-31T14:09:35;10.30;99.90
39453;DHT22;25154;-33.684;151.102;2023-08-31T14:14:38;10.40;99.90
39453;DHT22;25154;-33.684;151.102;2023-08-31T14:19:46;10.20;99.90
39453;DHT22;25154;-33.684;151.102;2023-08-31T14:24:48;9.50;99.90
39453;DHT22;25154;-33.684;151.102;2023-08-31T14:29:51;10.00;99.90
39453;DHT22;25154;-33.684;151.102;2023-08-31T14:34:55;10.30;99.90
39453;DHT22;25154;-33.684;151.102;2023-08-31T14:39:58;10.10;99.90
39453;DHT22;25154;-33.684;151.102;2023-08-31T14:45:03;10.10;99.90
39453;DHT22;25154;-33.684;151.102;2023-08-31T14:50:07;10.20;99.90
39453;DHT22;25154;-33.684;151.102;2023-08-31T14:55:11;10.20;99.90
39453;DHT22;25154;-33.684;151.102;2023-08-31T15:00:14;9.90;99.90
39453;DHT22;25154;-33.684;151.102;2023-08-31T15:05:17;9.80;99.90
39453;DHT22;25154;-33.684;151.102;2023-08-31T15:15:21;10.30;99.90
39453;DHT22;25154;-33.684;151.102;2023-08-31T15:20:25;10.20;99.90
39453;DHT22;25154;-33.684;151.102;2023-08-31T15:25:28;10.50;99.90
39453;DHT22;25154;-33.684;151.102;2023-08-31T15:30:33;10.40;99.90
39453;DHT22;25154;-33.684;151.102;2023-08-31T15:35:36;10.40;99.90
39453;DHT22;25154;-33.684;151.102;2023-08-31T15:40:38;10.40;99.90
39453;DHT22;25154;-33.684;151.102;2023-08-31T15:45:45;10.30;99.90
39453;DHT22;25154;-33.684;151.102;2023-08-31T15:50:50;10.20;99.90
39453;DHT22;25154;-33.684;151.102;2023-08-31T15:55:53;10.30;99.90
39453;DHT22;25154;-33.684;151.102;2023-08-31T16:00:55;10.20;99.90
39453;DHT22;25154;-33.684;151.102;2023-08-31T16:06:05;9.90;99.90
39453;DHT22;25154;-33.684;151.102;2023-08-31T16:11:09;9.80;99.90
39453;DHT22;25154;-33.684;151.102;2023-08-31T16:16:11;9.70;99.90
39453;DHT22;25154;-33.684;151.102;2023-08-31T16:21:14;9.80;99.90
39453;DHT22;25154;-33.684;151.102;2023-08-31T16:26:21;9.70;99.90
39453;DHT22;25154;-33.684;151.102;2023-08-31T16:31:23;9.50;99.90
39453;DHT22;25154;-33.684;151.102;2023-08-31T16:36:25;9.40;99.90
39453;DHT22;25154;-33.684;151.102;2023-08-31T16:41:28;8.50;99.90
39453;DHT22;25154;-33.684;151.102;2023-08-31T16:46:30;9.30;99.90
39453;DHT22;25154;-33.684;151.102;2023-08-31T16:51:33;9.00;99.90
39453;DHT22;25154;-33.684;151.102;2023-08-31T16:56:36;9.20;99.90
39453;DHT22;25154;-33.684;151.102;2023-08-31T17:01:39;9.20;99.90
39453;DHT22;25154;-33.684;151.102;2023-08-31T17:06:41;9.40;99.90
39453;DHT22;25154;-33.684;151.102;2023-08-31T17:11:44;9.50;99.90
39453;DHT22;25154;-33.684;151.102;2023-08-31T17:16:49;9.40;99.90
39453;DHT22;25154;-33.684;151.102;2023-08-31T17:21:53;9.30;99.90
39453;DHT22;25154;-33.684;151.102;2023-08-31T17:26:55;9.40;99.90
39453;DHT22;25154;-33.684;151.102;2023-08-31T17:32:01;9.30;99.90
39453;DHT22;25154;-33.684;151.102;2023-08-31T17:37:05;9.30;99.90
39453;DHT22;25154;-33.684;151.102;2023-08-31T17:42:07;9.60;99.90
39453;DHT22;25154;-33.684;151.102;2023-08-31T17:47:09;9.70;99.90
39453;DHT22;25154;-33.684;151.102;2023-08-31T17:52:12;9.60;99.90
39453;DHT22;25154;-33.684;151.102;2023-08-31T17:57:14;9.30;99.90
39453;DHT22;25154;-33.684;151.102;2023-08-31T18:02:17;9.20;99.90
39453;DHT22;25154;-33.684;151.102;2023-08-31T18:07:19;9.00;99.90
39453;DHT22;25154;-33.684;151.102;2023-08-31T18:12:23;9.20;99.90
39453;DHT22;25154;-33.684;151.102;2023-08-31T18:17:26;9.00;99.90
39453;DHT22;25154;-33.684;151.102;2023-08-31T18:22:28;8.90;99.90
39453;DHT22;25154;-33.684;151.102;2023-08-31T18:27:32;8.80;99.90
39453;DHT22;25154;-33.684;151.102;2023-08-31T18:32:35;9.00;99.90
39453;DHT22;25154;-33.684;151.102;2023-08-31T18:42:41;8.80;99.90
39453;DHT22;25154;-33.684;151.102;2023-08-31T18:47:45;8.60;99.90
39453;DHT22;25154;-33.684;151.102;2023-08-31T18:52:49;8.50;99.90
39453;DHT22;25154;-33.684;151.102;2023-08-31T18:57:52;8.70;99.90
39453;DHT22;25154;-33.684;151.102;2023-08-31T19:02:55;8.40;99.90
39453;DHT22;25154;-33.684;151.102;2023-08-31T19:07:58;8.50;99.90
39453;DHT22;25154;-33.684;151.102;2023-08-31T19:13:01;8.20;99.90
39453;DHT22;25154;-33.684;151.102;2023-08-31T19:18:09;5.20;99.90
39453;DHT22;25154;-33.684;151.102;2023-08-31T19:23:12;8.10;99.90
39453;DHT22;25154;-33.684;151.102;2023-08-31T19:28:18;8.20;99.90
39453;DHT22;25154;-33.684;151.102;2023-08-31T19:33:21;8.20;99.90
39453;DHT22;25154;-33.684;151.102;2023-08-31T19:38:24;8.40;99.90
39453;DHT22;25154;-33.684;151.102;2023-08-31T19:43:27;8.80;99.90
39453;DHT22;25154;-33.684;151.102;2023-08-31T19:48:30;9.10;99.90
39453;DHT22;25154;-33.684;151.102;2023-08-31T19:53:34;9.50;99.90
39453;DHT22;25154;-33.684;151.102;2023-08-31T19:58:40;9.70;99.90
39453;DHT22;25154;-33.684;151.102;2023-08-31T20:03:43;9.80;99.90
39453;DHT22;25154;-33.684;151.102;2023-08-31T20:08:45;9.80;99.90
39453;DHT22;25154;-33.684;151.102;2023-08-31T20:13:48;10.00;99.90
39453;DHT22;25154;-33.684;151.102;2023-08-31T20:18:54;10.10;99.90
39453;DHT22;25154;-33.684;151.102;2023-08-31T20:24:09;10.20;99.90
39453;DHT22;25154;-33.684;151.102;2023-08-31T20:29:16;10.30;99.90
39453;DHT22;25154;-33.684;151.102;2023-08-31T20:34:19;10.20;99.90
39453;DHT22;25154;-33.684;151.102;2023-08-31T20:39:26;10.30;99.90
39453;DHT22;25154;-33.684;151.102;2023-08-31T20:44:29;10.50;99.90
39453;DHT22;25154;-33.684;151.102;2023-08-31T20:49:33;10.80;99.90
39453;DHT22;25154;-33.684;151.102;2023-08-31T20:54:36;10.80;99.90
39453;DHT22;25154;-33.684;151.102;2023-08-31T20:59:39;10.80;99.90
39453;DHT22;25154;-33.684;151.102;2023-08-31T21:04:42;10.80;99.90
39453;DHT22;25154;-33.684;151.102;2023-08-31T21:09:45;10.80;99.90
39453;DHT22;25154;-33.684;151.102;2023-08-31T21:14:48;10.90;99.90
39453;DHT22;25154;-33.684;151.102;2023-08-31T21:19:51;11.10;99.90
39453;DHT22;25154;-33.684;151.102;2023-08-31T21:24:53;11.20;99.90
39453;DHT22;25154;-33.684;151.102;2023-08-31T21:29:56;11.40;99.90
39453;DHT22;25154;-33.684;151.102;2023-08-31T21:35:02;11.60;99.90
39453;DHT22;25154;-33.684;151.102;2023-08-31T21:40:06;11.70;99.90
39453;DHT22;25154;-33.684;151.102;2023-08-31T21:45:09;11.70;99.90
39453;DHT22;25154;-33.684;151.102;2023-08-31T21:50:12;13.40;99.90
39453;DHT22;25154;-33.684;151.102;2023-08-31T21:55:15;11.60;99.90
39453;DHT22;25154;-33.684;151.102;2023-08-31T22:00:18;11.60;99.90
39453;DHT22;25154;-33.684;151.102;2023-08-31T22:05:22;11.70;99.90
39453;DHT22;25154;-33.684;151.102;2023-08-31T22:10:27;12.30;99.90
39453;DHT22;25154;-33.684;151.102;2023-08-31T22:15:29;12.70;99.90
39453;DHT22;25154;-33.684;151.102;2023-08-31T22:20:37;12.80;99.90
39453;DHT22;25154;-33.684;151.102;2023-08-31T22:25:40;12.90;99.90
39453;DHT22;25154;-33.684;151.102;2023-08-31T22:30:43;13.10;99.90
39453;DHT22;25154;-33.684;151.102;2023-08-31T22:35:46;13.30;99.90
39453;DHT22;25154;-33.684;151.102;2023-08-31T22:40:49;13.40;99.90
39453;DHT22;25154;-33.684;151.102;2023-08-31T22:45:56;13.50;99.90
39453;DHT22;25154;-33.684;151.102;2023-08-31T22:50:59;13.30;99.90
39453;DHT22;25154;-33.684;151.102;2023-08-31T22:56:04;13.30;99.90
39453;DHT22;25154;-33.684;151.102;2023-08-31T23:01:07;13.10;99.90
39453;DHT22;25154;-33.684;151.102;2023-08-31T23:06:13;13.10;99.90
39453;DHT22;25154;-33.684;151.102;2023-08-31T23:11:17;13.40;99.90
39453;DHT22;25154;-33.684;151.102;2023-08-31T23:16:20;13.70;99.90
39453;DHT22;25154;-33.684;151.102;2023-08-31T23:21:22;14.40;99.90
39453;DHT22;25154;-33.684;151.102;2023-08-31T23:31:36;15.00;99.90
39453;DHT22;25154;-33.684;151.102;2023-08-31T23:36:40;15.00;99.90
39453;DHT22;25154;-33.684;151.102;2023-08-31T23:41:44;14.90;99.90
39453;DHT22;25154;-33.684;151.102;2023-08-31T23:46:46;15.40;99.90
39453;DHT22;25154;-33.684;151.102;2023-08-31T23:51:50;15.60;99.90
39453;DHT22;25154;-33.684;151.102;2023-08-31T23:56:52;16.10;99.90
